Time;durP1;ratioP1;P1;durP2;ratioP2;P2;SDS_P1;SDS_P2;PMS_P1;PMS_P2;Temp;Humidity;BMP_temperature;BMP_pressure;BME280_temperature;BME280_humidity;BME280_pressure;Samples;Min_cycle;Max_cycle;Signal;HPM_P1;HPM_P2
2021/04/12 00:00:31;;;;;;;1.50;1.40;;;7.80;99.90;;;;;;5056752;28;20444;-82
2021/04/12 00:03:07;;;;;;;1.90;1.80;;;7.40;99.90;;;;;;5022593;28;20876;-79
2021/04/12 00:05:41;;;;;;;1.40;1.30;;;7.40;99.90;;;;;;5039026;28;20427;-80
2021/04/12 00:08:39;;;;;;;1.23;1.17;;;7.60;99.90;;;;;;5039893;28;20415;-79
2021/04/12 00:11:21;;;;;;;1.60;1.50;;;7.30;99.90;;;;;;5039697;28;20440;-79
2021/04/12 00:13:57;;;;;;;3.00;1.90;;;7.30;99.90;;;;;;5039013;28;20394;-79
2021/04/12 00:16:33;;;;;;;2.20;1.80;;;7.30;99.90;;;;;;5020962;28;20467;-80
2021/04/12 00:19:10;;;;;;;1.60;1.50;;;7.20;99.90;;;;;;5056894;28;20851;-81
2021/04/12 00:21:45;;;;;;;1.27;1.17;;;7.10;99.90;;;;;;5038742;28;20420;-81
2021/04/12 00:24:27;;;;;;;1.70;1.60;;;7.00;99.90;;;;;;5057076;28;20426;-80
2021/04/12 00:27:07;;;;;;;1.60;1.50;;;7.10;99.90;;;;;;5038912;28;20434;-81
2021/04/12 00:29:54;;;;;;;1.67;1.57;;;7.00;99.90;;;;;;5056746;28;20749;-81
2021/04/12 00:32:30;;;;;;;1.97;1.83;;;6.70;99.90;;;;;;5037129;28;20999;-81
2021/04/12 00:35:05;;;;;;;1.80;1.70;;;6.70;99.90;;;;;;5038552;28;20418;-81
2021/04/12 00:37:47;;;;;;;1.90;1.80;;;6.70;99.90;;;;;;5038334;28;20484;-81
2021/04/12 00:40:27;;;;;;;1.60;1.50;;;6.90;99.90;;;;;;5035142;28;20473;-80
2021/04/12 00:43:25;;;;;;;2.00;1.40;;;6.90;99.90;;;;;;5035162;28;20434;-81
2021/04/12 00:46:27;;;;;;;1.77;1.67;;;6.90;99.90;;;;;;5025546;28;20494;-81
2021/04/12 00:49:16;;;;;;;1.70;1.53;;;6.80;99.90;;;;;;5034934;28;20433;-81
2021/04/12 00:52:05;;;;;;;1.60;1.40;;;6.90;99.90;;;;;;5018026;28;20402;-81
2021/04/12 00:54:58;;;;;;;1.90;1.80;;;6.90;99.90;;;;;;5034717;28;20406;-81
2021/04/12 00:57:55;;;;;;;1.30;1.20;;;6.40;99.90;;;;;;5037732;28;20435;-81
2021/04/12 01:00:36;;;;;;;1.47;1.37;;;6.30;99.90;;;;;;5023138;28;20445;-81
2021/04/12 01:03:43;;;;;;;1.93;1.63;;;5.90;99.90;;;;;;5058288;28;20436;-80
2021/04/12 01:06:28;;;;;;;2.00;1.87;;;5.90;99.90;;;;;;5049052;28;20449;-80
2021/04/12 01:09:20;;;;;;;1.80;1.70;;;5.80;99.90;;;;;;5041725;28;20963;-79
2021/04/12 01:12:21;;;;;;;1.63;1.53;;;5.80;99.90;;;;;;5058213;28;20488;-79
2021/04/12 01:15:15;;;;;;;1.50;1.40;;;5.70;99.90;;;;;;5001555;28;20481;-81
2021/04/12 01:18:10;;;;;;;1.60;1.50;;;5.90;99.90;;;;;;5071116;28;20461;-79
2021/04/12 01:21:35;;;;;;;1.97;1.87;;;5.50;99.90;;;;;;5078026;28;20426;-78
2021/04/12 01:24:32;;;;;;;1.70;1.60;;;5.40;99.90;;;;;;5086322;28;20433;-81
2021/04/12 01:27:38;;;;;;;1.83;1.73;;;5.20;99.90;;;;;;5062756;28;20979;-81
2021/04/12 01:30:46;;;;;;;2.20;2.00;;;5.30;99.90;;;;;;5078911;28;20421;-79
2021/04/12 01:33:58;;;;;;;2.33;2.13;;;5.30;99.90;;;;;;5063754;28;20471;-79
2021/04/12 01:36:44;;;;;;;1.70;1.60;;;5.30;99.90;;;;;;5058674;28;20476;-80
2021/04/12 01:39:51;;;;;;;1.83;1.73;;;5.00;99.90;;;;;;5057351;28;20493;-80
2021/04/12 01:42:48;;;;;;;2.27;2.07;;;4.90;99.90;;;;;;5075963;28;20438;-80
2021/04/12 01:45:33;;;;;;;2.27;2.07;;;5.00;99.90;;;;;;5071713;28;20426;-80
2021/04/12 01:48:26;;;;;;;2.60;2.40;;;4.90;99.90;;;;;;5055152;28;20418;-79
2021/04/12 01:51:23;;;;;;;2.77;2.40;;;5.00;99.90;;;;;;5037056;28;20916;-80
2021/04/12 01:54:31;;;;;;;2.53;2.33;;;4.70;99.90;;;;;;4997147;28;20445;-80
2021/04/12 01:57:34;;;;;;;2.83;2.27;;;4.70;99.90;;;;;;5029780;28;21009;-80
2021/04/12 02:00:44;;;;;;;1.70;1.60;;;4.90;99.90;;;;;;4999065;28;20492;-79
2021/04/12 02:03:48;;;;;;;2.20;2.00;;;4.90;99.90;;;;;;5030061;28;20441;-79
2021/04/12 02:06:38;;;;;;;2.80;2.60;;;4.70;99.90;;;;;;5054665;28;20449;-79
2021/04/12 02:09:47;;;;;;;2.57;2.37;;;4.60;99.90;;;;;;5054898;28;20430;-80
2021/04/12 02:12:53;;;;;;;2.00;1.77;;;4.50;99.90;;;;;;5036946;28;20430;-80
2021/04/12 02:15:30;;;;;;;2.47;2.27;;;4.70;99.90;;;;;;5052646;28;20985;-80
2021/04/12 02:18:27;;;;;;;2.97;2.67;;;4.60;99.90;;;;;;5055718;28;20442;-80
2021/04/12 02:21:31;;;;;;;2.67;2.47;;;4.50;99.90;;;;;;5048642;28;20873;-80
2021/04/12 02:24:17;;;;;;;2.30;2.10;;;4.60;99.90;;;;;;5048669;28;20429;-80
2021/04/12 02:27:06;;;;;;;2.33;2.17;;;4.60;99.90;;;;;;5056954;28;20448;-80
2021/04/12 02:29:51;;;;;;;1.93;1.77;;;4.50;99.90;;;;;;5056748;28;20433;-80
2021/04/12 02:33:00;;;;;;;1.90;1.70;;;4.40;99.90;;;;;;5033727;28;20622;-80
2021/04/12 02:35:51;;;;;;;1.93;1.83;;;4.60;99.90;;;;;;5041274;28;20433;-80
2021/04/12 02:38:34;;;;;;;2.20;2.00;;;4.70;99.90;;;;;;5056771;28;20462;-80
2021/04/12 02:41:37;;;;;;;1.63;1.53;;;4.70;99.90;;;;;;5074213;28;20516;-80
2021/04/12 02:44:54;;;;;;;2.13;1.97;;;4.60;99.90;;;;;;5060911;28;20437;-80
2021/04/12 02:48:12;;;;;;;1.93;1.83;;;4.20;99.90;;;;;;5055827;28;20458;-80
2021/04/12 02:51:14;;;;;;;3.60;3.03;;;4.30;99.90;;;;;;5057162;28;20446;-80
2021/04/12 02:54:23;;;;;;;2.50;1.90;;;4.10;99.90;;;;;;5056167;28;20950;-79
2021/04/12 02:57:41;;;;;;;3.37;2.80;;;3.90;99.90;;;;;;5056885;28;20441;-79
2021/04/12 03:00:23;;;;;;;2.60;2.40;;;4.00;99.90;;;;;;5054253;28;20477;-80
2021/04/12 03:03:12;;;;;;;2.70;2.27;;;4.00;99.90;;;;;;5041484;28;20445;-80
2021/04/12 03:06:03;;;;;;;2.43;2.23;;;4.10;99.90;;;;;;5040592;28;20449;-80
2021/04/12 03:08:56;;;;;;;2.63;2.43;;;4.20;99.90;;;;;;5057678;28;20475;-80
2021/04/12 03:11:58;;;;;;;2.50;2.23;;;4.00;99.90;;;;;;5060360;28;20444;-80
2021/04/12 03:15:29;;;;;;;2.83;2.47;;;4.00;99.90;;;;;;5077080;28;20987;-79
2021/04/12 03:18:22;;;;;;;2.40;2.07;;;4.00;99.90;;;;;;5060108;28;20903;-80
2021/04/12 03:21:21;;;;;;;2.03;1.87;;;4.10;99.90;;;;;;5049339;28;20434;-80
2021/04/12 03:24:05;;;;;;;2.53;2.33;;;4.10;99.90;;;;;;5082189;28;20445;-80
2021/04/12 03:27:30;;;;;;;2.33;2.13;;;3.90;99.90;;;;;;5061007;28;20421;-80
2021/04/12 03:30:17;;;;;;;2.90;2.20;;;4.00;99.90;;;;;;5077983;28;20942;-80
2021/04/12 03:33:13;;;;;;;2.13;1.90;;;4.00;99.90;;;;;;5020406;28;21007;-79
2021/04/12 03:36:10;;;;;;;2.10;1.90;;;3.70;99.90;;;;;;5019906;28;20455;-79
2021/04/12 03:38:58;;;;;;;3.40;3.10;;;3.50;99.90;;;;;;5004284;28;20499;-79
2021/04/12 03:41:58;;;;;;;3.20;2.53;;;3.60;99.90;;;;;;5052462;28;20442;-79
2021/04/12 03:44:49;;;;;;;4.17;3.10;;;3.50;99.90;;;;;;5041678;28;20438;-79
2021/04/12 03:47:56;;;;;;;3.43;2.97;;;3.30;99.90;;;;;;5004780;28;20477;-79
2021/04/12 03:50:51;;;;;;;3.77;3.43;;;3.10;99.90;;;;;;5036769;28;20511;-79
2021/04/12 03:53:51;;;;;;;3.27;2.90;;;3.20;99.90;;;;;;5043115;28;20444;-79
2021/04/12 03:56:26;;;;;;;3.30;2.63;;;3.10;99.90;;;;;;5061002;28;20957;-80
2021/04/12 03:59:08;;;;;;;4.20;3.80;;;3.10;99.90;;;;;;5059504;28;20468;-80
2021/04/12 04:02:06;;;;;;;3.00;2.70;;;3.10;99.90;;;;;;5061254;28;20468;-80
2021/04/12 04:04:52;;;;;;;5.07;4.67;;;3.20;99.90;;;;;;5063918;28;20783;-80
2021/04/12 04:07:59;;;;;;;4.50;3.00;;;3.10;99.90;;;;;;5063407;28;20468;-80
2021/04/12 04:10:53;;;;;;;4.10;2.80;;;3.00;99.90;;;;;;5065119;28;20433;-80
2021/04/12 04:13:36;;;;;;;4.63;2.73;;;3.00;99.90;;;;;;5061449;28;20476;-80
2021/04/12 04:16:34;;;;;;;3.73;3.33;;;2.90;99.90;;;;;;5058918;28;20493;-80
2021/04/12 04:19:07;;;;;;;3.83;3.50;;;2.90;99.90;;;;;;5042227;28;20905;-80
2021/04/12 04:22:03;;;;;;;5.20;4.30;;;3.10;99.90;;;;;;5077331;28;20445;-80
2021/04/12 04:25:02;;;;;;;3.90;3.50;;;2.90;99.90;;;;;;5075989;28;20524;-80
2021/04/12 04:27:58;;;;;;;4.40;4.00;;;2.90;99.90;;;;;;5059015;28;20414;-80
2021/04/12 04:31:12;;;;;;;3.77;3.40;;;3.00;99.90;;;;;;5071206;28;20793;-79
2021/04/12 04:34:14;;;;;;;5.00;3.17;;;3.00;99.90;;;;;;5018924;28;20454;-79
2021/04/12 04:37:21;;;;;;;4.63;3.60;;;3.10;99.90;;;;;;5022395;28;20799;-79
2021/04/12 04:40:36;;;;;;;5.73;4.80;;;3.00;99.90;;;;;;5021707;28;20485;-79
2021/04/12 04:43:27;;;;;;;4.33;3.60;;;2.90;99.90;;;;;;5038896;28;20435;-80
2021/04/12 04:46:44;;;;;;;6.80;4.40;;;2.90;99.90;;;;;;5024963;28;20500;-80
2021/04/12 04:49:31;;;;;;;5.07;3.90;;;2.80;99.90;;;;;;5033554;28;20986;-81
2021/04/12 04:52:41;;;;;;;4.03;3.67;;;2.90;99.90;;;;;;5033099;28;20445;-79
2021/04/12 04:55:25;;;;;;;4.70;3.80;;;3.30;99.90;;;;;;4973008;28;20518;-80
2021/04/12 04:58:13;;;;;;;4.50;4.07;;;3.00;99.90;;;;;;5038853;28;20713;-80
2021/04/12 05:01:15;;;;;;;5.77;4.33;;;2.90;99.90;;;;;;5018190;28;20504;-80
2021/04/12 05:04:12;;;;;;;6.47;4.60;;;2.70;99.90;;;;;;5040106;28;20437;-79
2021/04/12 05:07:02;;;;;;;4.43;4.03;;;2.70;99.90;;;;;;5058112;28;20443;-80
2021/04/12 05:09:54;;;;;;;5.40;4.40;;;3.00;99.90;;;;;;5025096;28;20440;-80
2021/04/12 05:12:46;;;;;;;5.03;4.13;;;2.90;99.90;;;;;;5018541;28;20471;-81
2021/04/12 05:15:39;;;;;;;6.10;4.63;;;2.90;99.90;;;;;;5021625;28;20451;-81
2021/04/12 05:18:42;;;;;;;6.87;5.57;;;3.00;99.90;;;;;;4984796;28;20471;-81
2021/04/12 05:21:39;;;;;;;5.97;4.07;;;3.20;99.90;;;;;;5040039;28;20799;-82
2021/04/12 05:24:39;;;;;;;5.20;4.70;;;3.20;99.90;;;;;;5023618;28;20439;-81
2021/04/12 05:27:28;;;;;;;8.60;5.10;;;2.90;99.90;;;;;;5007041;28;20455;-81
2021/04/12 05:30:40;;;;;;;31.30;21.20;;;2.80;99.90;;;;;;5002090;28;20471;-81
2021/04/12 05:33:31;;;;;;;5.40;4.90;;;2.80;99.90;;;;;;5024131;28;20452;-81
2021/04/12 05:36:39;;;;;;;6.20;5.53;;;2.90;99.90;;;;;;5024070;28;20523;-82
2021/04/12 05:39:43;;;;;;;8.00;5.43;;;2.90;99.90;;;;;;4928609;29;20621;-81
2021/04/12 05:42:26;;;;;;;8.57;6.57;;;3.00;99.90;;;;;;5012805;28;20866;-81
2021/04/12 05:45:14;;;;;;;6.97;5.80;;;2.90;99.90;;;;;;5024378;28;20432;-81
2021/04/12 05:48:23;;;;;;;6.27;5.27;;;2.90;99.90;;;;;;5004230;28;20515;-82
2021/04/12 05:51:29;;;;;;;7.80;6.00;;;2.80;99.90;;;;;;5020083;28;20791;-82
2021/04/12 05:54:22;;;;;;;8.47;6.37;;;2.90;99.90;;;;;;5006505;28;20451;-81
2021/04/12 05:57:20;;;;;;;6.40;5.43;;;2.80;99.90;;;;;;4988301;28;20456;-81
2021/04/12 06:00:33;;;;;;;8.57;6.43;;;2.80;99.90;;;;;;5018034;28;20852;-81
2021/04/12 06:03:21;;;;;;;6.80;5.97;;;2.70;99.90;;;;;;5001839;28;20471;-81
2021/04/12 06:06:30;;;;;;;7.97;6.37;;;2.80;99.90;;;;;;5007964;28;20467;-81
2021/04/12 06:09:31;;;;;;;10.33;6.47;;;2.80;99.90;;;;;;5005494;28;20448;-81
2021/04/12 06:12:32;;;;;;;9.43;6.70;;;2.80;99.90;;;;;;5004031;28;20479;-81
2021/04/12 06:15:34;;;;;;;9.60;7.00;;;2.80;99.90;;;;;;5058373;23;20497;-78
2021/04/12 06:18:32;;;;;;;7.20;6.13;;;2.80;99.90;;;;;;5008880;28;20466;-78
2021/04/12 06:21:51;;;;;;;6.90;5.83;;;2.80;99.90;;;;;;5037154;28;20803;-80
2021/04/12 06:24:46;;;;;;;9.23;7.53;;;2.70;99.90;;;;;;5021269;28;20431;-79
2021/04/12 06:27:44;;;;;;;8.73;7.00;;;2.70;99.90;;;;;;5037807;28;20436;-76
2021/04/12 06:30:40;;;;;;;8.07;6.50;;;2.60;99.90;;;;;;4987271;28;20439;-76
2021/04/12 06:33:51;;;;;;;10.50;6.93;;;2.80;99.90;;;;;;5020405;28;20458;-78
2021/04/12 06:36:46;;;;;;;10.20;7.87;;;2.90;99.90;;;;;;5019730;28;20467;-78
2021/04/12 06:39:49;;;;;;;9.70;6.37;;;3.20;99.90;;;;;;5001548;28;20499;-80
2021/04/12 06:42:55;;;;;;;7.90;6.47;;;3.20;99.90;;;;;;5029813;28;20443;-78
2021/04/12 06:46:04;;;;;;;13.03;7.30;;;3.30;99.90;;;;;;5035871;28;20461;-77
2021/04/12 06:49:08;;;;;;;11.10;7.43;;;3.30;99.90;;;;;;5020095;28;20444;-79
2021/04/12 06:52:26;;;;;;;9.23;6.70;;;3.10;99.90;;;;;;5014099;28;20439;-78
2021/04/12 06:55:17;;;;;;;11.13;6.57;;;3.10;99.90;;;;;;5047594;28;20478;-78
2021/04/12 06:58:16;;;;;;;8.00;6.57;;;3.20;99.90;;;;;;5038450;28;20446;-77
2021/04/12 07:01:28;;;;;;;8.53;5.70;;;3.20;99.90;;;;;;5020660;28;20486;-78
2021/04/12 07:04:29;;;;;;;7.97;6.83;;;3.30;99.90;;;;;;5021557;28;20431;-78
2021/04/12 07:07:30;;;;;;;8.37;6.60;;;3.30;99.90;;;;;;5040878;28;20541;-77
2021/04/12 07:10:27;;;;;;;9.80;6.60;;;3.30;99.90;;;;;;5024321;28;20443;-76
2021/04/12 07:13:05;;;;;;;8.20;6.57;;;3.30;99.90;;;;;;5050228;28;20443;-76
2021/04/12 07:15:59;;;;;;;13.10;7.00;;;3.50;99.90;;;;;;5048799;28;20509;-77
2021/04/12 07:19:07;;;;;;;7.00;6.30;;;3.50;99.90;;;;;;5024627;28;20924;-76
2021/04/12 07:22:16;;;;;;;10.10;7.20;;;3.60;99.90;;;;;;5040269;28;20951;-77
2021/04/12 07:25:26;;;;;;;8.47;6.03;;;3.50;99.90;;;;;;5040323;28;20487;-77
2021/04/12 07:28:48;;;;;;;8.00;6.47;;;3.50;99.90;;;;;;5007656;28;20439;-76
2021/04/12 07:31:54;;;;;;;9.40;7.40;;;3.40;99.90;;;;;;5024858;28;20435;-77
2021/04/12 07:34:59;;;;;;;6.87;5.90;;;3.60;99.90;;;;;;5031946;28;20512;-74
2021/04/12 07:38:03;;;;;;;7.27;5.73;;;3.70;99.90;;;;;;5027506;28;20431;-76
2021/04/12 07:41:20;;;;;;;7.50;5.93;;;3.60;99.90;;;;;;5024853;28;20463;-76
2021/04/12 07:44:20;;;;;;;7.80;7.00;;;3.30;99.90;;;;;;4967056;28;20539;-76
2021/04/12 07:47:28;;;;;;;6.80;5.57;;;3.40;99.90;;;;;;5004522;28;20447;-76
2021/04/12 07:50:32;;;;;;;8.40;6.97;;;3.40;99.90;;;;;;5004462;28;20440;-76
2021/04/12 07:53:41;;;;;;;7.40;6.00;;;3.60;99.90;;;;;;4973403;28;20451;-75
2021/04/12 07:56:45;;;;;;;7.60;5.77;;;3.60;99.90;;;;;;5021536;28;20435;-77
2021/04/12 08:00:00;;;;;;;6.37;5.33;;;3.70;99.90;;;;;;4981480;28;20495;-77
2021/04/12 08:03:07;;;;;;;7.93;6.00;;;3.90;99.90;;;;;;5002862;28;20467;-76
2021/04/12 08:06:23;;;;;;;7.70;6.17;;;4.00;99.90;;;;;;4986779;28;20988;-78
2021/04/12 08:09:27;;;;;;;11.00;5.60;;;4.00;99.90;;;;;;4985065;28;20472;-77
2021/04/12 08:12:35;;;;;;;6.87;6.10;;;3.90;99.90;;;;;;4988884;28;20534;-78
2021/04/12 08:15:50;;;;;;;6.07;5.03;;;3.80;99.90;;;;;;4986492;28;20866;-77
2021/04/12 08:18:48;;;;;;;7.80;5.57;;;4.00;99.90;;;;;;5020460;28;20436;-77
2021/04/12 08:21:46;;;;;;;5.57;5.00;;;3.90;99.90;;;;;;5003233;28;20502;-77
2021/04/12 08:24:53;;;;;;;7.20;5.03;;;4.00;99.90;;;;;;5003220;28;20907;-76
2021/04/12 08:28:11;;;;;;;6.60;5.60;;;4.00;99.90;;;;;;4997175;28;20528;-77
2021/04/12 08:31:08;;;;;;;5.97;4.97;;;3.70;99.90;;;;;;5019259;28;20479;-77
2021/04/12 08:34:31;;;;;;;8.00;5.23;;;3.70;99.90;;;;;;5002226;28;20989;-76
2021/04/12 08:37:32;;;;;;;6.20;5.10;;;4.10;99.90;;;;;;5004439;28;20428;-75
2021/04/12 08:40:37;;;;;;;6.07;5.20;;;4.00;99.90;;;;;;4974996;28;20869;-76
2021/04/12 08:43:24;;;;;;;4.80;4.33;;;4.00;99.90;;;;;;5019833;28;20528;-76
2021/04/12 08:46:17;;;;;;;6.23;5.03;;;4.10;99.90;;;;;;5002707;28;20448;-75
2021/04/12 08:49:06;;;;;;;6.10;5.10;;;3.90;99.90;;;;;;5019934;28;20515;-76
2021/04/12 08:52:17;;;;;;;7.70;4.90;;;4.10;99.90;;;;;;4999459;28;20448;-77
2021/04/12 08:55:21;;;;;;;6.07;4.60;;;4.30;99.90;;;;;;4999970;28;20436;-75
2021/04/12 08:58:06;;;;;;;5.57;4.33;;;4.50;99.90;;;;;;4963578;28;20440;-77
2021/04/12 09:01:26;;;;;;;6.37;4.93;;;4.40;99.90;;;;;;5018919;28;20464;-76
2021/04/12 09:04:34;;;;;;;4.90;3.73;;;4.30;99.90;;;;;;5018282;28;20438;-76
2021/04/12 09:07:39;;;;;;;5.17;4.60;;;4.50;99.90;;;;;;4971290;28;20502;-76
2021/04/12 09:14:06;;;;;;;4.70;3.60;;;4.80;99.90;;;;;;5015256;28;20437;-76
2021/04/12 09:16:53;;;;;;;7.20;4.73;;;4.70;99.90;;;;;;4964530;28;20484;-75
2021/04/12 09:19:58;;;;;;;7.50;4.13;;;4.70;99.90;;;;;;4980719;28;20508;-75
2021/04/12 09:22:56;;;;;;;7.03;4.67;;;4.80;99.90;;;;;;4983672;28;20475;-77
2021/04/12 09:25:51;;;;;;;7.77;4.90;;;4.70;99.90;;;;;;4981034;28;20439;-78
2021/04/12 09:28:37;;;;;;;4.50;3.43;;;4.40;99.90;;;;;;4997566;28;20507;-75
2021/04/12 09:34:52;;;;;;;4.67;3.80;;;4.60;99.90;;;;;;4999450;28;20220;-76
2021/04/12 09:38:06;;;;;;;4.63;3.83;;;4.50;99.90;;;;;;4986607;28;20439;-76
2021/04/12 09:41:06;;;;;;;3.30;3.00;;;4.60;99.90;;;;;;4953353;28;20576;-76
2021/04/12 09:44:20;;;;;;;5.03;3.97;;;4.50;99.90;;;;;;4998256;28;20429;-78
2021/04/12 09:47:22;;;;;;;4.10;3.70;;;4.60;99.90;;;;;;4997649;28;20425;-76
2021/04/12 09:50:18;;;;;;;5.27;3.90;;;4.50;99.90;;;;;;4980272;28;20867;-76
2021/04/12 09:53:20;;;;;;;4.93;4.17;;;4.60;99.90;;;;;;4980724;28;20447;-76
2021/04/12 09:56:32;;;;;;;4.80;4.30;;;4.50;99.90;;;;;;5004406;28;20447;-76
2021/04/12 09:59:39;;;;;;;6.30;4.80;;;4.60;99.90;;;;;;5011857;28;20457;-76
2021/04/12 10:02:32;;;;;;;5.90;5.10;;;4.60;99.90;;;;;;5010315;28;20530;-76
2021/04/12 10:05:16;;;;;;;5.40;4.90;;;4.60;99.90;;;;;;5018325;28;20444;-75
2021/04/12 10:08:07;;;;;;;6.80;5.40;;;4.70;99.90;;;;;;5018125;28;20755;-79
2021/04/12 10:11:01;;;;;;;6.03;5.00;;;4.80;99.90;;;;;;4999478;28;20448;-76
2021/04/12 10:13:37;;;;;;;7.17;4.47;;;5.40;99.90;;;;;;5020073;28;20435;-76
2021/04/12 10:16:11;;;;;;;7.97;4.83;;;5.50;99.90;;;;;;5039080;28;20558;-75
2021/04/12 10:18:44;;;;;;;7.97;4.77;;;5.60;99.90;;;;;;5006599;28;20431;-75
2021/04/12 10:21:22;;;;;;;7.80;5.23;;;5.30;99.90;;;;;;5039819;28;20534;-76
2021/04/12 10:23:56;;;;;;;5.37;4.77;;;5.60;99.90;;;;;;5020531;28;20431;-76
2021/04/12 10:26:28;;;;;;;5.60;4.50;;;5.80;99.90;;;;;;5021765;28;20467;-76
2021/04/12 10:29:03;;;;;;;5.90;4.50;;;6.00;99.90;;;;;;5020105;28;20459;-76
2021/04/12 10:31:41;;;;;;;7.10;4.87;;;6.00;99.90;;;;;;5017025;28;20486;-76
2021/04/12 10:34:21;;;;;;;5.10;4.47;;;6.00;99.90;;;;;;5017501;28;20482;-78
2021/04/12 10:37:08;;;;;;;7.63;5.20;;;6.20;99.90;;;;;;5001370;28;20424;-75
2021/04/12 10:39:44;;;;;;;5.67;4.70;;;6.50;99.90;;;;;;5002780;28;20991;-76
2021/04/12 10:42:26;;;;;;;4.63;4.10;;;6.50;99.90;;;;;;5001971;28;20418;-76
2021/04/12 10:45:01;;;;;;;5.70;4.53;;;6.50;99.90;;;;;;5037345;28;20417;-76
2021/04/12 10:47:42;;;;;;;4.40;3.60;;;6.50;99.90;;;;;;4997437;28;20692;-77
2021/04/12 10:50:20;;;;;;;5.73;5.20;;;6.40;99.90;;;;;;5014959;28;20433;-77
2021/04/12 10:53:21;;;;;;;4.83;4.20;;;6.30;99.90;;;;;;4997834;28;20455;-77
2021/04/12 10:56:02;;;;;;;5.93;4.10;;;5.80;99.90;;;;;;4979860;28;20539;-77
2021/04/12 10:59:04;;;;;;;4.40;3.87;;;5.90;99.90;;;;;;4998870;28;20444;-77
2021/04/12 11:01:41;;;;;;;6.50;4.13;;;5.70;99.90;;;;;;4992925;28;20533;-77
2021/04/12 11:04:29;;;;;;;6.30;4.10;;;5.80;99.90;;;;;;5035518;28;20440;-76
2021/04/12 11:07:14;;;;;;;9.20;3.70;;;5.70;99.90;;;;;;5018639;28;20426;-77
2021/04/12 11:09:56;;;;;;;5.70;4.13;;;5.90;99.90;;;;;;5036203;28;20432;-76
2021/04/12 11:13:00;;;;;;;3.97;3.67;;;5.90;99.90;;;;;;5035735;28;20412;-75
2021/04/12 11:15:51;;;;;;;4.70;3.60;;;6.40;99.90;;;;;;4920556;29;20476;-75
2021/04/12 11:18:28;;;;;;;4.40;3.83;;;6.60;99.90;;;;;;5014587;28;20446;-77
2021/04/12 11:21:26;;;;;;;5.37;4.27;;;6.70;99.90;;;;;;5015581;28;20446;-75
2021/04/12 11:24:08;;;;;;;5.37;4.67;;;6.60;99.90;;;;;;5017486;28;20785;-76
2021/04/12 11:27:10;;;;;;;6.90;3.93;;;5.70;99.90;;;;;;4998376;28;20440;-76
2021/04/12 11:29:41;;;;;;;8.40;5.03;;;5.50;99.90;;;;;;4981553;28;20433;-76
2021/04/12 11:32:17;;;;;;;6.70;4.60;;;5.50;99.90;;;;;;5000363;28;20518;-77
2021/04/12 11:34:52;;;;;;;4.90;4.40;;;5.30;99.90;;;;;;5021459;28;20431;-77
2021/04/12 11:37:25;;;;;;;6.73;4.10;;;5.20;99.90;;;;;;4989656;28;20432;-78
2021/04/12 11:39:57;;;;;;;3.50;3.20;;;5.30;99.90;;;;;;5022334;28;20790;-80
2021/04/12 11:42:30;;;;;;;4.17;3.80;;;5.40;99.90;;;;;;5004901;28;20417;-77
2021/04/12 11:45:06;;;;;;;4.33;3.93;;;5.30;99.90;;;;;;5004873;28;20439;-78
2021/04/12 11:47:57;;;;;;;4.90;4.30;;;5.50;99.90;;;;;;4984945;28;20463;-77
2021/04/12 11:50:35;;;;;;;3.33;3.03;;;5.70;99.90;;;;;;5049973;23;20516;-80
2021/04/12 11:53:16;;;;;;;3.37;3.07;;;5.80;99.90;;;;;;5019344;28;20415;-80
2021/04/12 11:55:57;;;;;;;3.77;3.30;;;5.80;99.90;;;;;;5041775;28;20464;-80
2021/04/12 11:58:35;;;;;;;4.10;3.03;;;5.60;99.90;;;;;;5040493;28;20445;-80
2021/04/12 12:01:19;;;;;;;3.00;2.70;;;5.80;99.90;;;;;;5021508;28;20507;-80
2021/04/12 12:04:17;;;;;;;3.57;3.00;;;5.60;99.90;;;;;;5006894;28;20451;-81
2021/04/12 12:07:02;;;;;;;3.07;2.83;;;5.50;99.90;;;;;;5023279;28;20503;-80
2021/04/12 12:09:40;;;;;;;2.93;2.63;;;5.40;99.90;;;;;;5009636;28;20430;-80
2021/04/12 12:12:29;;;;;;;3.45;2.85;;;5.50;99.90;;;;;;4992667;28;20443;-80
2021/04/12 12:15:07;;;;;;;2.60;2.30;;;5.50;99.90;;;;;;5009483;28;20184;-81
2021/04/12 12:17:42;;;;;;;3.97;2.43;;;5.90;99.90;;;;;;5005919;28;20462;-81
2021/04/12 12:20:24;;;;;;;3.13;2.80;;;6.10;99.90;;;;;;5003492;28;20472;-80
2021/04/12 12:23:05;;;;;;;3.20;2.30;;;6.20;99.90;;;;;;5000764;28;20401;-80
2021/04/12 12:25:44;;;;;;;2.80;2.30;;;6.20;99.90;;;;;;5002958;28;20433;-80
2021/04/12 12:28:54;;;;;;;;;;;;;;;;;;;;;
2021/04/12 12:31:37;;;;;;;2.87;2.60;;;6.10;99.90;;;;;;4987443;28;20451;-80
2021/04/12 12:34:57;;;;;;;3.20;2.43;;;6.00;99.90;;;;;;4970161;28;20429;-80
2021/04/12 12:37:36;;;;;;;3.33;3.00;;;5.90;99.90;;;;;;4970775;28;20508;-80
2021/04/12 12:40:14;;;;;;;3.23;2.97;;;5.70;99.90;;;;;;4987277;28;20473;-81
2021/04/12 12:42:48;;;;;;;3.30;3.00;;;5.60;99.90;;;;;;4988642;28;20409;-80
2021/04/12 12:45:42;;;;;;;4.27;2.87;;;5.80;99.90;;;;;;4971449;28;20399;-80
2021/04/12 12:48:18;;;;;;;5.27;2.60;;;6.50;99.90;;;;;;5027589;28;20443;-81
2021/04/12 12:50:54;;;;;;;3.57;2.87;;;6.50;99.90;;;;;;4994354;28;20870;-81
2021/04/12 12:53:31;;;;;;;6.50;2.93;;;6.60;99.90;;;;;;5010185;28;20414;-81
2021/04/12 12:56:14;;;;;;;4.63;3.47;;;6.80;99.90;;;;;;4994196;28;20424;-81
2021/04/12 12:59:07;;;;;;;3.80;3.20;;;6.70;99.90;;;;;;4990767;28;20420;-81
2021/04/12 13:01:46;;;;;;;3.43;3.13;;;5.80;99.90;;;;;;5013088;28;20467;-81
2021/04/12 13:04:29;;;;;;;13.43;3.30;;;5.70;99.90;;;;;;5047523;28;20464;-80
2021/04/12 13:10:33;;;;;;;6.03;2.80;;;5.90;99.90;;;;;;5046674;28;20199;-81
2021/04/12 13:13:01;;;;;;;4.73;3.30;;;6.30;99.90;;;;;;5032165;28;20447;-81
2021/04/12 13:15:45;;;;;;;4.80;2.50;;;6.60;99.90;;;;;;5033919;28;20473;-81
2021/04/12 13:21:29;;;;;;;2.53;2.00;;;7.50;98.80;;;;;;5010401;28;20477;-81
2021/04/12 13:24:15;;;;;;;2.63;2.40;;;7.50;96.80;;;;;;5010372;28;20430;-82
2021/04/12 13:29:50;;;;;;;1.73;1.60;;;7.50;95.40;;;;;;5004114;28;20418;-80
2021/04/12 13:32:24;;;;;;;2.10;1.90;;;7.50;94.50;;;;;;5003318;28;21010;-80
2021/04/12 13:34:59;;;;;;;3.30;2.20;;;7.20;94.80;;;;;;5023671;28;20414;-80
2021/04/12 13:37:37;;;;;;;3.40;2.00;;;6.70;96.20;;;;;;5024816;28;20425;-81
2021/04/12 13:43:47;;;;;;;2.47;2.10;;;6.80;97.20;;;;;;5049853;28;20773;-80
2021/04/12 13:46:52;;;;;;;2.87;2.67;;;7.30;96.30;;;;;;5009422;28;20485;-81
2021/04/12 13:49:46;;;;;;;1.97;1.80;;;7.60;94.50;;;;;;5045014;28;20455;-81
2021/04/12 13:52:30;;;;;;;2.23;1.90;;;7.80;94.00;;;;;;5010975;28;20513;-81
2021/04/12 13:55:35;;;;;;;3.80;2.13;;;8.00;93.70;;;;;;5028732;28;20401;-81
2021/04/12 13:58:40;;;;;;;7.43;2.30;;;7.80;93.00;;;;;;5033097;28;20438;-81
2021/04/12 14:01:44;;;;;;;;;;;;;;;;;;;;;
2021/04/12 14:04:47;;;;;;;3.20;2.10;;;7.30;93.40;;;;;;5031958;28;20761;-81
2021/04/12 14:07:39;;;;;;;2.70;1.77;;;7.50;94.10;;;;;;5032301;28;20481;-81
2021/04/12 14:10:29;;;;;;;6.73;4.43;;;7.70;93.30;;;;;;5045327;28;20403;-80
2021/04/12 14:13:18;;;;;;;2.23;2.03;;;7.10;93.90;;;;;;5042588;28;20922;-80
2021/04/12 14:16:10;;;;;;;4.23;3.60;;;6.80;94.20;;;;;;5026728;28;20985;-80
2021/04/12 14:18:50;;;;;;;2.50;2.30;;;6.90;94.40;;;;;;5005019;28;20888;-80
2021/04/12 14:21:30;;;;;;;2.13;1.77;;;6.90;94.40;;;;;;5040382;28;20491;-81
2021/04/12 14:24:14;;;;;;;2.17;1.97;;;7.10;94.20;;;;;;5031873;28;20454;-80
2021/04/12 14:33:13;;;;;;;2.33;1.50;;;7.10;93.00;;;;;;5045313;28;20430;-81
2021/04/12 14:35:52;;;;;;;1.97;1.73;;;7.50;91.90;;;;;;5033244;28;20451;-81
2021/04/12 14:38:29;;;;;;;3.47;2.30;;;7.40;91.60;;;;;;5051857;28;20488;-81
2021/04/12 14:41:13;;;;;;;2.87;1.73;;;7.80;91.20;;;;;;5016321;28;20444;-81
2021/04/12 14:47:29;;;;;;;3.10;2.07;;;7.80;91.30;;;;;;5073081;22;20540;-82
2021/04/12 14:50:10;;;;;;;5.00;2.30;;;7.80;91.60;;;;;;5039527;28;20517;-81
2021/04/12 14:53:09;;;;;;;1.73;1.63;;;7.70;91.50;;;;;;5098719;22;20855;-80
2021/04/12 14:56:29;;;;;;;3.83;1.87;;;7.70;92.40;;;;;;5004321;28;20440;-81
2021/04/12 14:59:06;;;;;;;3.00;2.00;;;7.90;91.80;;;;;;5033530;28;20434;-81
2021/04/12 15:01:45;;;;;;;3.13;2.07;;;7.90;92.00;;;;;;5006892;28;20488;-80
2021/04/12 15:04:42;;;;;;;2.70;1.93;;;7.30;92.30;;;;;;5028249;28;20424;-81
2021/04/12 15:07:23;;;;;;;3.50;1.50;;;7.10;92.80;;;;;;5030560;28;20417;-81
2021/04/12 15:10:17;;;;;;;2.27;2.03;;;7.40;91.30;;;;;;5011580;28;20792;-80
2021/04/12 15:13:08;;;;;;;;;;;;;;;;;;;;;
2021/04/12 15:16:14;;;;;;;4.33;1.80;;;7.10;91.40;;;;;;5044904;28;20527;-80
2021/04/12 15:18:48;;;;;;;2.23;1.60;;;7.00;93.40;;;;;;5034302;28;20438;-81
2021/04/12 15:21:25;;;;;;;1.93;1.77;;;7.00;92.70;;;;;;5044575;28;20475;-81
2021/04/12 15:24:08;;;;;;;2.50;1.87;;;7.00;93.30;;;;;;5050012;28;20416;-81
2021/04/12 15:26:45;;;;;;;2.37;2.17;;;6.90;93.30;;;;;;5048948;28;20403;-80
2021/04/12 15:29:40;;;;;;;1.73;1.63;;;6.70;92.50;;;;;;5047856;28;20946;-82
2021/04/12 15:32:20;;;;;;;2.00;1.80;;;6.60;92.80;;;;;;5041064;28;20466;-79
2021/04/12 15:34:53;;;;;;;2.33;1.80;;;6.70;93.40;;;;;;5050046;28;20427;-82
2021/04/12 15:37:37;;;;;;;3.50;2.03;;;6.80;92.90;;;;;;5066886;28;20772;-80
2021/04/12 15:40:33;;;;;;;3.40;1.80;;;6.80;93.20;;;;;;5049391;28;20433;-79
2021/04/12 15:43:18;;;;;;;2.23;2.00;;;6.80;93.10;;;;;;5046490;28;20486;-80
2021/04/12 15:46:00;;;;;;;2.07;1.87;;;6.80;93.10;;;;;;5031791;28;20411;-81